Time;durP1;ratioP1;P1;durP2;ratioP2;P2;SDS_P1;SDS_P2;PMS_P1;PMS_P2;Temp;Humidity;BMP_temperature;BMP_pressure;BME280_temperature;BME280_humidity;BME280_pressure;Samples;Min_cycle;Max_cycle;Signal;HPM_P1;HPM_P2
2022/07/30 00:02:15;;;;;;;9.20;6.05;;;;;;;;;;6217239;23;20004;-89
2022/07/30 00:04:41;;;;;;;12.10;6.13;;;;;;;;;;6217300;23;20008;-89
2022/07/30 00:07:07;;;;;;;15.32;7.03;;;;;;;;;;6217276;23;20012;-89
2022/07/30 00:09:33;;;;;;;11.07;7.38;;;;;;;;;;6215807;23;20012;-89
2022/07/30 00:11:59;;;;;;;14.57;6.43;;;;;;;;;;6214872;23;20061;-90
2022/07/30 00:14:26;;;;;;;17.35;7.68;;;;;;;;;;6214335;23;20488;-89
2022/07/30 00:16:52;;;;;;;15.35;7.47;;;;;;;;;;6215104;23;20004;-90
2022/07/30 00:19:19;;;;;;;16.90;7.82;;;;;;;;;;6214489;23;20008;-90
2022/07/30 00:21:45;;;;;;;19.80;8.50;;;;;;;;;;6214890;23;20432;-89
2022/07/30 00:24:11;;;;;;;15.43;7.63;;;;;;;;;;6213517;23;20159;-89
2022/07/30 00:26:38;;;;;;;16.88;7.30;;;;;;;;;;6214223;23;20104;-90
2022/07/30 00:29:04;;;;;;;13.07;7.60;;;;;;;;;;6215201;23;20425;-90
2022/07/30 00:31:30;;;;;;;15.55;7.45;;;;;;;;;;6214726;23;20008;-89
2022/07/30 00:33:57;;;;;;;12.80;7.88;;;;;;;;;;6214602;23;20008;-89
2022/07/30 00:36:23;;;;;;;16.60;7.40;;;;;;;;;;6240608;23;20043;-89
2022/07/30 00:38:49;;;;;;;13.93;7.35;;;;;;;;;;6214213;23;20375;-89
2022/07/30 00:41:15;;;;;;;29.92;9.25;;;;;;;;;;6212309;23;20340;-90
2022/07/30 00:43:41;;;;;;;14.23;8.10;;;;;;;;;;6214079;23;20000;-89
2022/07/30 00:46:07;;;;;;;19.58;8.95;;;;;;;;;;6214086;23;20015;-89
2022/07/30 00:48:33;;;;;;;12.30;8.10;;;;;;;;;;6213868;23;20091;-89
2022/07/30 00:51:06;;;;;;;19.63;8.70;;;;;;;;;;6241209;23;20035;-90
2022/07/30 00:53:32;;;;;;;13.00;7.78;;;;;;;;;;6213570;23;20087;-89
2022/07/30 00:55:59;;;;;;;13.48;7.65;;;;;;;;;;6214709;22;20019;-89
2022/07/30 00:58:25;;;;;;;17.50;8.35;;;;;;;;;;6240678;23;19996;-90
2022/07/30 01:00:51;;;;;;;13.95;7.80;;;;;;;;;;6214112;23;20009;-89
2022/07/30 01:03:17;;;;;;;18.30;8.20;;;;;;;;;;6214756;23;20008;-89
2022/07/30 01:05:43;;;;;;;16.48;8.95;;;;;;;;;;6214870;23;20054;-90
2022/07/30 01:08:09;;;;;;;14.05;8.50;;;;;;;;;;6215565;23;20016;-89
2022/07/30 01:10:35;;;;;;;19.65;8.32;;;;;;;;;;6213453;23;20016;-89
2022/07/30 01:13:02;;;;;;;13.88;8.75;;;;;;;;;;6214714;23;20011;-89
2022/07/30 01:15:29;;;;;;;19.88;8.60;;;;;;;;;;6214109;23;20019;-89
2022/07/30 01:17:57;;;;;;;12.23;7.80;;;;;;;;;;6214266;23;20008;-89
2022/07/30 01:20:28;;;;;;;17.60;8.98;;;;;;;;;;6214320;23;20011;-90
2022/07/30 01:22:58;;;;;;;19.33;8.27;;;;;;;;;;6214678;23;20006;-89
2022/07/30 01:25:28;;;;;;;19.52;7.88;;;;;;;;;;6213465;23;20375;-89
2022/07/30 01:27:57;;;;;;;17.25;9.20;;;;;;;;;;6214385;23;20423;-89
2022/07/30 01:30:24;;;;;;;17.85;10.15;;;;;;;;;;6214702;23;20008;-89
2022/07/30 01:32:51;;;;;;;20.98;9.75;;;;;;;;;;6214392;23;20295;-90
2022/07/30 01:35:18;;;;;;;27.23;9.90;;;;;;;;;;6213266;23;20008;-89
2022/07/30 01:37:45;;;;;;;19.65;8.63;;;;;;;;;;6213651;23;20050;-89
2022/07/30 01:40:11;;;;;;;15.07;8.55;;;;;;;;;;6209735;23;20474;-89
2022/07/30 01:42:38;;;;;;;15.80;8.85;;;;;;;;;;6213473;23;20008;-89
2022/07/30 01:45:12;;;;;;;20.52;9.32;;;;;;;;;;6240123;23;20004;-89
2022/07/30 01:47:38;;;;;;;17.52;9.57;;;;;;;;;;6213451;23;20008;-89
2022/07/30 01:50:07;;;;;;;18.90;8.70;;;;;;;;;;6212806;23;20421;-89
2022/07/30 01:52:36;;;;;;;18.13;8.90;;;;;;;;;;6213254;23;20015;-89
2022/07/30 01:55:02;;;;;;;15.90;9.68;;;;;;;;;;6213589;22;20016;-89
2022/07/30 01:57:30;;;;;;;16.20;9.10;;;;;;;;;;6212556;23;20000;-89
2022/07/30 01:59:58;;;;;;;15.90;9.13;;;;;;;;;;6212286;23;20001;-89
2022/07/30 02:02:24;;;;;;;16.98;9.52;;;;;;;;;;6212945;23;20027;-89
2022/07/30 02:04:50;;;;;;;25.25;9.95;;;;;;;;;;6211969;23;20427;-89
2022/07/30 02:07:19;;;;;;;15.38;9.48;;;;;;;;;;6213337;23;20008;-89
2022/07/30 02:09:53;;;;;;;20.80;10.07;;;;;;;;;;6212028;23;20019;-90
2022/07/30 02:12:30;;;;;;;17.92;9.85;;;;;;;;;;6213240;23;20012;-90
2022/07/30 02:15:18;;;;;;;15.55;9.23;;;;;;;;;;6212749;23;20629;-89
2022/07/30 02:17:53;;;;;;;15.25;9.23;;;;;;;;;;6213049;23;20019;-89
2022/07/30 02:20:21;;;;;;;16.48;9.38;;;;;;;;;;6212596;23;20008;-89
2022/07/30 02:22:48;;;;;;;21.88;9.32;;;;;;;;;;6212862;23;20004;-89
2022/07/30 02:25:19;;;;;;;19.45;10.40;;;;;;;;;;6211893;23;20317;-89
2022/07/30 02:27:48;;;;;;;26.05;10.32;;;;;;;;;;6240171;23;20027;-89
2022/07/30 02:30:14;;;;;;;22.30;10.20;;;;;;;;;;6212188;23;20475;-89
2022/07/30 02:32:42;;;;;;;22.80;9.13;;;;;;;;;;6213203;23;20179;-89
2022/07/30 02:35:10;;;;;;;17.42;9.90;;;;;;;;;;6211515;23;20005;-89
2022/07/30 02:37:37;;;;;;;18.70;9.65;;;;;;;;;;6212893;23;20434;-89
2022/07/30 02:40:03;;;;;;;17.00;9.68;;;;;;;;;;6210127;23;20089;-89
2022/07/30 02:42:30;;;;;;;21.15;9.57;;;;;;;;;;6212778;23;20424;-89
2022/07/30 02:44:57;;;;;;;15.73;9.27;;;;;;;;;;6212558;23;20404;-89
2022/07/30 02:47:25;;;;;;;22.42;10.05;;;;;;;;;;6212348;23;20490;-89
2022/07/30 02:49:52;;;;;;;17.88;9.65;;;;;;;;;;6212692;23;20019;-89
2022/07/30 02:52:19;;;;;;;16.15;9.35;;;;;;;;;;6212836;23;20452;-89
2022/07/30 02:54:45;;;;;;;21.42;9.63;;;;;;;;;;6212788;22;20012;-89
2022/07/30 02:57:12;;;;;;;16.48;9.18;;;;;;;;;;6213105;23;20058;-89
2022/07/30 02:59:40;;;;;;;14.05;9.13;;;;;;;;;;6239081;23;20484;-89
2022/07/30 03:02:07;;;;;;;15.27;9.38;;;;;;;;;;6212952;23;20004;-89
2022/07/30 03:04:34;;;;;;;20.63;9.18;;;;;;;;;;6212093;23;20391;-89
2022/07/30 03:07:00;;;;;;;19.95;10.52;;;;;;;;;;6212585;23;20496;-89
2022/07/30 03:09:26;;;;;;;24.85;10.20;;;;;;;;;;6211841;23;20070;-89
2022/07/30 03:11:56;;;;;;;19.55;10.25;;;;;;;;;;6212841;23;20008;-89
2022/07/30 03:14:22;;;;;;;14.20;9.35;;;;;;;;;;6212412;23;20014;-90
2022/07/30 03:16:55;;;;;;;24.23;10.50;;;;;;;;;;6212557;23;20000;-89
2022/07/30 03:19:23;;;;;;;16.73;9.63;;;;;;;;;;6212516;23;20637;-89
2022/07/30 03:21:50;;;;;;;26.13;10.88;;;;;;;;;;6212780;23;20011;-90
2022/07/30 03:24:17;;;;;;;21.48;11.55;;;;;;;;;;6212140;23;20008;-89
2022/07/30 03:26:44;;;;;;;18.83;11.55;;;;;;;;;;6212039;23;20008;-89
2022/07/30 03:29:10;;;;;;;25.83;12.30;;;;;;;;;;6212688;23;20201;-89
2022/07/30 03:31:36;;;;;;;28.98;11.82;;;;;;;;;;6212195;23;20034;-89
2022/07/30 03:34:03;;;;;;;34.42;13.05;;;;;;;;;;6212404;23;20004;-89
2022/07/30 03:36:29;;;;;;;20.80;11.38;;;;;;;;;;6212480;23;20433;-88
2022/07/30 03:38:55;;;;;;;26.75;11.52;;;;;;;;;;6211437;23;20023;-89
2022/07/30 03:41:22;;;;;;;19.85;11.50;;;;;;;;;;6211311;23;20142;-89
2022/07/30 03:43:49;;;;;;;26.80;11.60;;;;;;;;;;6212674;23;20000;-89
2022/07/30 03:46:16;;;;;;;27.00;11.13;;;;;;;;;;6212164;23;20123;-90
2022/07/30 03:48:43;;;;;;;32.58;12.27;;;;;;;;;;6212313;23;20062;-89
2022/07/30 03:51:09;;;;;;;22.15;11.30;;;;;;;;;;6211949;23;20437;-89
2022/07/30 03:53:36;;;;;;;24.80;13.57;;;;;;;;;;6212712;23;20012;-88
2022/07/30 03:56:02;;;;;;;28.10;13.35;;;;;;;;;;6213154;22;20591;-89
2022/07/30 03:58:28;;;;;;;28.98;14.60;;;;;;;;;;6212689;23;20001;-90
2022/07/30 04:00:55;;;;;;;28.40;13.98;;;;;;;;;;6212509;23;20004;-89
2022/07/30 04:03:28;;;;;;;24.67;13.55;;;;;;;;;;6213418;23;20012;-88
2022/07/30 04:05:54;;;;;;;24.67;12.25;;;;;;;;;;6212403;23;20332;-88
2022/07/30 04:08:20;;;;;;;24.38;12.63;;;;;;;;;;6214225;23;20472;-86
2022/07/30 04:10:46;;;;;;;23.50;12.45;;;;;;;;;;6215682;23;20054;-89
2022/07/30 04:13:13;;;;;;;27.45;11.82;;;;;;;;;;6218716;23;20011;-89
2022/07/30 04:15:48;;;;;;;24.52;11.93;;;;;;;;;;6218995;23;20516;-88
2022/07/30 04:18:15;;;;;;;23.33;12.48;;;;;;;;;;6219040;23;20087;-90
2022/07/30 04:20:43;;;;;;;21.40;11.85;;;;;;;;;;6217624;23;20008;-89
2022/07/30 04:23:10;;;;;;;19.58;11.73;;;;;;;;;;6242955;23;20000;-88
2022/07/30 04:25:37;;;;;;;24.40;12.52;;;;;;;;;;6215306;23;20003;-87
2022/07/30 04:28:04;;;;;;;20.38;11.88;;;;;;;;;;6215464;23;20019;-89
2022/07/30 04:30:32;;;;;;;23.33;11.75;;;;;;;;;;6215042;23;20031;-88
2022/07/30 04:32:58;;;;;;;24.55;11.50;;;;;;;;;;6214893;23;20004;-89
2022/07/30 04:35:28;;;;;;;23.85;11.88;;;;;;;;;;6213731;23;20004;-89
2022/07/30 04:37:54;;;;;;;25.30;11.80;;;;;;;;;;6214603;23;20004;-89
2022/07/30 04:40:20;;;;;;;18.42;11.05;;;;;;;;;;6211533;23;20313;-89
2022/07/30 04:42:46;;;;;;;25.50;11.90;;;;;;;;;;6213798;23;20000;-89
2022/07/30 04:45:12;;;;;;;27.65;14.20;;;;;;;;;;6240400;23;20007;-89
2022/07/30 04:47:38;;;;;;;31.73;13.75;;;;;;;;;;6240320;23;20000;-89
2022/07/30 04:50:08;;;;;;;26.48;14.65;;;;;;;;;;6213857;23;20318;-89
2022/07/30 04:52:35;;;;;;;23.98;12.65;;;;;;;;;;6213429;23;20042;-89
2022/07/30 04:55:06;;;;;;;27.50;12.75;;;;;;;;;;6214531;22;20326;-89
2022/07/30 04:57:33;;;;;;;26.80;13.23;;;;;;;;;;6240335;23;20000;-89
2022/07/30 04:59:59;;;;;;;25.95;13.00;;;;;;;;;;6213643;23;20110;-89
2022/07/30 05:02:26;;;;;;;23.73;12.95;;;;;;;;;;6213684;23;20004;-89
2022/07/30 05:04:52;;;;;;;17.15;11.23;;;;;;;;;;6213475;23;20432;-89
2022/07/30 05:07:19;;;;;;;20.98;12.00;;;;;;;;;;6213591;23;20294;-90
2022/07/30 05:09:46;;;;;;;24.17;11.65;;;;;;;;;;6211972;23;20019;-89
2022/07/30 05:12:12;;;;;;;17.88;10.98;;;;;;;;;;6213607;23;20004;-89
2022/07/30 05:14:38;;;;;;;18.02;11.23;;;;;;;;;;6213166;23;20032;-89
2022/07/30 05:17:04;;;;;;;18.80;11.80;;;;;;;;;;6213258;23;20011;-89
2022/07/30 05:19:30;;;;;;;21.35;11.40;;;;;;;;;;6213122;23;20023;-89
2022/07/30 05:21:57;;;;;;;20.00;11.10;;;;;;;;;;6213280;23;20004;-89
2022/07/30 05:24:23;;;;;;;17.73;11.77;;;;;;;;;;6213116;23;20488;-89
2022/07/30 05:26:49;;;;;;;18.60;10.88;;;;;;;;;;6212951;23;20388;-90
2022/07/30 05:29:15;;;;;;;17.52;10.85;;;;;;;;;;6213818;23;20372;-90
2022/07/30 05:31:41;;;;;;;18.20;11.13;;;;;;;;;;6240419;23;20083;-89
2022/07/30 05:34:07;;;;;;;21.17;12.25;;;;;;;;;;6213788;23;20451;-89
2022/07/30 05:36:33;;;;;;;18.70;11.18;;;;;;;;;;6213134;23;20004;-89
2022/07/30 05:38:59;;;;;;;19.70;10.75;;;;;;;;;;6211839;23;20017;-90
2022/07/30 05:41:28;;;;;;;19.20;11.15;;;;;;;;;;6212500;23;20087;-89
2022/07/30 05:43:54;;;;;;;30.83;11.52;;;;;;;;;;6213429;23;20455;-90
2022/07/30 05:46:20;;;;;;;23.13;11.20;;;;;;;;;;6213057;23;20433;-89
2022/07/30 05:48:52;;;;;;;23.15;10.98;;;;;;;;;;6213417;23;20015;-91
2022/07/30 05:51:19;;;;;;;19.98;11.30;;;;;;;;;;6213299;23;20004;-89
2022/07/30 05:53:45;;;;;;;23.20;11.18;;;;;;;;;;6214024;23;20094;-90
2022/07/30 05:56:11;;;;;;;17.67;10.10;;;;;;;;;;6214236;22;20016;-89
2022/07/30 05:58:38;;;;;;;18.40;11.05;;;;;;;;;;6213865;23;20050;-89
2022/07/30 06:01:04;;;;;;;21.02;10.95;;;;;;;;;;6213002;23;20036;-89
2022/07/30 06:03:30;;;;;;;22.42;11.20;;;;;;;;;;6213474;23;20008;-90
2022/07/30 06:05:56;;;;;;;16.60;10.75;;;;;;;;;;6213056;23;20012;-90
2022/07/30 06:08:22;;;;;;;19.55;10.65;;;;;;;;;;6213573;23;20008;-90
2022/07/30 06:10:48;;;;;;;19.70;11.38;;;;;;;;;;6212500;23;20421;-89
2022/07/30 06:13:15;;;;;;;19.08;10.02;;;;;;;;;;6212819;23;20058;-90
2022/07/30 06:15:41;;;;;;;19.90;10.15;;;;;;;;;;6213138;23;20082;-89
2022/07/30 06:18:07;;;;;;;17.02;11.20;;;;;;;;;;6212845;23;20008;-89
2022/07/30 06:20:33;;;;;;;19.02;10.27;;;;;;;;;;6213337;23;20023;-89
2022/07/30 06:22:59;;;;;;;17.65;10.95;;;;;;;;;;6213133;23;20001;-90
2022/07/30 06:25:25;;;;;;;14.20;9.63;;;;;;;;;;6212774;23;20462;-89
2022/07/30 06:27:51;;;;;;;21.40;9.68;;;;;;;;;;6213209;23;20012;-90
2022/07/30 06:30:17;;;;;;;16.38;9.57;;;;;;;;;;6212867;23;20008;-89
2022/07/30 06:32:44;;;;;;;18.27;10.63;;;;;;;;;;6212667;23;20019;-90
2022/07/30 06:35:10;;;;;;;16.00;9.10;;;;;;;;;;6212755;23;20032;-90
2022/07/30 06:37:36;;;;;;;21.83;10.05;;;;;;;;;;6212957;23;20350;-89
2022/07/30 06:40:03;;;;;;;13.00;9.48;;;;;;;;;;6210847;23;20012;-89
2022/07/30 06:42:29;;;;;;;17.33;9.73;;;;;;;;;;6212899;23;20028;-89
2022/07/30 06:44:55;;;;;;;15.13;9.60;;;;;;;;;;6212930;23;20397;-89
2022/07/30 06:47:28;;;;;;;22.23;9.57;;;;;;;;;;6212422;23;20039;-90
2022/07/30 06:49:57;;;;;;;17.83;8.57;;;;;;;;;;6213046;23;20352;-90
2022/07/30 06:52:23;;;;;;;12.77;8.02;;;;;;;;;;6212628;23;20089;-90
2022/07/30 06:54:49;;;;;;;25.52;9.25;;;;;;;;;;6212240;22;20011;-90
2022/07/30 06:57:15;;;;;;;12.50;8.27;;;;;;;;;;6209503;23;20499;-90
2022/07/30 06:59:42;;;;;;;15.73;9.43;;;;;;;;;;6182524;23;20016;-89
2022/07/30 07:02:08;;;;;;;26.75;9.70;;;;;;;;;;6182581;23;20635;-90
2022/07/30 07:04:34;;;;;;;13.10;8.48;;;;;;;;;;6182115;23;20004;-90
2022/07/30 07:07:00;;;;;;;19.10;9.23;;;;;;;;;;6182523;23;20016;-90
2022/07/30 07:09:26;;;;;;;12.80;7.95;;;;;;;;;;6181802;23;20217;-90
2022/07/30 07:11:52;;;;;;;20.35;7.57;;;;;;;;;;6182664;23;20341;-90
2022/07/30 07:14:18;;;;;;;19.25;7.75;;;;;;;;;;6182365;23;20031;-90
2022/07/30 07:16:44;;;;;;;26.05;8.98;;;;;;;;;;6182763;23;20032;-90
2022/07/30 07:19:10;;;;;;;12.02;7.38;;;;;;;;;;6182240;23;20009;-90
2022/07/30 07:21:36;;;;;;;14.40;8.35;;;;;;;;;;6209486;23;20306;-91
2022/07/30 07:24:02;;;;;;;16.48;7.90;;;;;;;;;;6182440;23;20012;-90
2022/07/30 07:26:29;;;;;;;11.50;8.20;;;;;;;;;;6182647;23;20008;-90
2022/07/30 07:28:55;;;;;;;13.40;7.20;;;;;;;;;;6182444;23;20496;-89
2022/07/30 07:31:28;;;;;;;17.08;7.03;;;;;;;;;;6182621;23;20031;-90
2022/07/30 07:33:54;;;;;;;14.95;7.45;;;;;;;;;;6182438;23;20119;-90
2022/07/30 07:36:21;;;;;;;11.35;7.22;;;;;;;;;;6182232;23;20449;-90
2022/07/30 07:38:47;;;;;;;11.15;7.25;;;;;;;;;;6182073;23;20517;-89
2022/07/30 07:41:13;;;;;;;18.35;6.97;;;;;;;;;;6180096;23;20011;-90
2022/07/30 07:43:39;;;;;;;15.77;6.72;;;;;;;;;;6182148;23;20204;-90
2022/07/30 07:46:05;;;;;;;15.43;6.75;;;;;;;;;;6184629;23;20032;-90
2022/07/30 07:48:31;;;;;;;18.55;7.05;;;;;;;;;;6183997;23;20104;-90
2022/07/30 07:50:58;;;;;;;21.45;6.53;;;;;;;;;;6211061;23;20419;-90
2022/07/30 07:53:24;;;;;;;9.15;5.82;;;;;;;;;;6184509;23;20456;-90
2022/07/30 07:55:51;;;;;;;10.88;5.68;;;;;;;;;;6223575;22;20023;-90
2022/07/30 07:58:17;;;;;;;13.52;6.93;;;;;;;;;;6214570;23;20004;-89
2022/07/30 08:00:43;;;;;;;11.68;6.00;;;;;;;;;;6214240;23;20012;-91
2022/07/30 08:03:09;;;;;;;15.13;5.90;;;;;;;;;;6214764;23;20070;-90
2022/07/30 08:05:35;;;;;;;19.98;7.15;;;;;;;;;;6241580;23;20066;-90
2022/07/30 08:08:01;;;;;;;12.52;5.78;;;;;;;;;;6214032;23;20008;-90
2022/07/30 08:10:27;;;;;;;13.35;6.38;;;;;;;;;;6241113;23;20119;-90
2022/07/30 08:12:53;;;;;;;12.82;5.53;;;;;;;;;;6214573;23;20039;-90
2022/07/30 08:15:20;;;;;;;20.20;5.78;;;;;;;;;;6214429;23;20020;-90
2022/07/30 08:17:46;;;;;;;12.50;5.88;;;;;;;;;;6240951;23;20002;-90
2022/07/30 08:20:13;;;;;;;9.98;5.35;;;;;;;;;;6214691;23;20004;-90
2022/07/30 08:22:40;;;;;;;12.00;5.47;;;;;;;;;;6241251;23;20447;-90
2022/07/30 08:25:06;;;;;;;7.95;4.35;;;;;;;;;;6213420;23;20448;-91
2022/07/30 08:27:32;;;;;;;15.27;5.18;;;;;;;;;;6214215;23;20039;-89
2022/07/30 08:29:58;;;;;;;12.85;4.90;;;;;;;;;;6214394;23;20380;-90
2022/07/30 08:32:24;;;;;;;16.83;5.03;;;;;;;;;;6214962;23;20322;-90
2022/07/30 08:34:50;;;;;;;7.78;4.63;;;;;;;;;;6214872;23;20031;-88
2022/07/30 08:37:16;;;;;;;9.40;4.80;;;;;;;;;;6218588;23;20434;-90
2022/07/30 08:39:42;;;;;;;9.85;4.00;;;;;;;;;;6215229;23;20019;-88
2022/07/30 08:42:09;;;;;;;7.57;4.43;;;;;;;;;;6218964;23;20435;-89
2022/07/30 08:44:35;;;;;;;12.25;4.65;;;;;;;;;;6218820;23;20012;-90
2022/07/30 08:47:02;;;;;;;7.28;4.38;;;;;;;;;;6217762;23;20008;-88
2022/07/30 08:49:28;;;;;;;9.45;3.90;;;;;;;;;;6216879;23;20099;-88
2022/07/30 08:51:54;;;;;;;10.02;4.53;;;;;;;;;;6216263;23;20055;-88
2022/07/30 08:54:21;;;;;;;13.07;5.90;;;;;;;;;;6214659;23;20039;-89
2022/07/30 08:56:51;;;;;;;8.13;4.85;;;;;;;;;;6193334;22;20725;-89
2022/07/30 08:59:17;;;;;;;14.82;5.28;;;;;;;;;;6183909;23;20475;-90
2022/07/30 09:01:43;;;;;;;11.18;4.82;;;;;;;;;;6210938;23;20012;-90
2022/07/30 09:04:09;;;;;;;10.70;5.03;;;;;;;;;;6183820;23;20005;-90
2022/07/30 09:06:36;;;;;;;13.52;5.13;;;;;;;;;;6183558;23;20099;-90
2022/07/30 09:09:02;;;;;;;15.77;5.32;;;;;;;;;;6183372;23;20059;-90
2022/07/30 09:11:28;;;;;;;8.52;3.97;;;;;;;;;;6182800;23;20005;-90
2022/07/30 09:13:54;;;;;;;16.42;4.20;;;;;;;;;;6183657;23;20004;-90
2022/07/30 09:16:22;;;;;;;6.57;3.47;;;;;;;;;;6183891;23;20012;-90
2022/07/30 09:18:48;;;;;;;14.75;4.25;;;;;;;;;;6183136;23;20011;-90
2022/07/30 09:21:17;;;;;;;9.00;3.72;;;;;;;;;;6182729;23;20032;-90
2022/07/30 09:23:56;;;;;;;6.57;3.70;;;;;;;;;;6183599;23;20039;-90
2022/07/30 09:26:22;;;;;;;9.95;3.80;;;;;;;;;;6182562;23;20048;-90
2022/07/30 09:28:48;;;;;;;7.13;4.05;;;;;;;;;;6183453;23;20036;-90
2022/07/30 09:31:14;;;;;;;14.75;4.47;;;;;;;;;;6183533;23;20437;-90
2022/07/30 09:33:41;;;;;;;4.95;3.50;;;;;;;;;;6210242;23;20011;-90
2022/07/30 09:36:11;;;;;;;7.25;3.17;;;;;;;;;;6209745;23;20016;-89
2022/07/30 09:38:48;;;;;;;8.05;3.53;;;;;;;;;;6183335;23;20046;-89
2022/07/30 09:41:15;;;;;;;6.55;3.15;;;;;;;;;;6181378;23;20078;-90
2022/07/30 09:43:48;;;;;;;5.40;3.08;;;;;;;;;;6183613;23;20016;-90
2022/07/30 09:46:15;;;;;;;6.50;3.33;;;;;;;;;;6183011;23;20009;-89
2022/07/30 09:48:41;;;;;;;10.48;3.60;;;;;;;;;;6183267;23;20008;-90
2022/07/30 09:51:07;;;;;;;12.07;3.30;;;;;;;;;;6182780;23;20009;-90
2022/07/30 09:53:34;;;;;;;11.10;4.65;;;;;;;;;;6183262;23;20345;-91
2022/07/30 09:56:00;;;;;;;9.68;2.88;;;;;;;;;;6220903;22;20016;-90
2022/07/30 09:58:40;;;;;;;8.52;3.30;;;;;;;;;;6240206;23;20000;-89
2022/07/30 10:01:08;;;;;;;11.98;3.30;;;;;;;;;;6212816;23;20420;-90
2022/07/30 10:03:41;;;;;;;7.38;3.00;;;;;;;;;;6213417;23;20008;-89
2022/07/30 10:06:07;;;;;;;12.32;3.85;;;;;;;;;;6212983;23;20012;-90
2022/07/30 10:08:43;;;;;;;9.55;3.35;;;;;;;;;;6239946;23;20000;-90
2022/07/30 10:11:24;;;;;;;15.20;4.28;;;;;;;;;;6211826;23;20336;-89
2022/07/30 10:13:52;;;;;;;9.80;2.60;;;;;;;;;;6213135;23;20340;-90
2022/07/30 10:16:19;;;;;;;6.18;2.72;;;;;;;;;;6212407;23;20012;-90
2022/07/30 10:18:45;;;;;;;11.85;3.40;;;;;;;;;;6212897;23;20091;-90
2022/07/30 10:21:12;;;;;;;5.72;2.50;;;;;;;;;;6212464;23;20087;-90
2022/07/30 10:23:39;;;;;;;8.98;3.10;;;;;;;;;;6212857;23;20035;-89
2022/07/30 10:26:05;;;;;;;9.98;3.70;;;;;;;;;;6238859;23;20062;-90
2022/07/30 10:28:32;;;;;;;6.32;2.58;;;;;;;;;;6212605;23;20495;-90
2022/07/30 10:30:58;;;;;;;8.10;3.15;;;;;;;;;;6212572;23;20035;-89
2022/07/30 10:33:25;;;;;;;5.63;2.70;;;;;;;;;;6212884;23;20318;-90
2022/07/30 10:35:51;;;;;;;5.93;2.80;;;;;;;;;;6239733;23;20015;-90
2022/07/30 10:38:19;;;;;;;6.68;2.75;;;;;;;;;;6212613;23;20310;-89
2022/07/30 10:40:52;;;;;;;7.20;2.72;;;;;;;;;;6210311;23;20004;-90
2022/07/30 10:43:38;;;;;;;8.35;2.78;;;;;;;;;;6212510;23;20031;-90
2022/07/30 10:46:23;;;;;;;3.97;2.70;;;;;;;;;;6137859;23;20062;-90
2022/07/30 10:48:49;;;;;;;7.97;2.83;;;;;;;;;;6212151;23;20010;-89
2022/07/30 10:51:41;;;;;;;4.75;3.25;;;;;;;;;;6213842;23;20031;-90
2022/07/30 10:54:27;;;;;;;6.80;2.30;;;;;;;;;;6212080;23;20118;-90
2022/07/30 10:57:12;;;;;;;7.80;2.92;;;;;;;;;;6239647;22;20019;-89
2022/07/30 10:59:59;;;;;;;7.82;2.95;;;;;;;;;;6212420;23;20036;-89
2022/07/30 11:02:26;;;;;;;7.97;3.15;;;;;;;;;;6212304;23;20066;-90
2022/07/30 11:05:11;;;;;;;8.38;3.22;;;;;;;;;;6212279;23;20012;-89
2022/07/30 11:07:37;;;;;;;7.10;3.03;;;;;;;;;;6212435;23;20398;-90
2022/07/30 11:10:03;;;;;;;7.13;2.35;;;;;;;;;;6212517;23;20004;-90
2022/07/30 11:12:41;;;;;;;9.40;2.90;;;;;;;;;;6212450;23;20484;-90
2022/07/30 11:15:08;;;;;;;5.70;2.90;;;;;;;;;;6239240;23;20099;-90
2022/07/30 11:17:53;;;;;;;6.32;2.78;;;;;;;;;;6213065;23;20425;-89
2022/07/30 11:20:20;;;;;;;4.85;2.20;;;;;;;;;;6213394;23;20395;-90
2022/07/30 11:22:48;;;;;;;7.88;2.53;;;;;;;;;;6214372;23;20008;-90
2022/07/30 11:25:26;;;;;;;9.82;2.63;;;;;;;;;;6213211;23;20053;-90
2022/07/30 11:27:53;;;;;;;8.55;3.33;;;;;;;;;;6241344;23;20038;-90
2022/07/30 11:30:22;;;;;;;4.38;2.75;;;;;;;;;;6213931;23;20069;-90
2022/07/30 11:32:50;;;;;;;12.40;3.20;;;;;;;;;;6241679;23;20379;-90
2022/07/30 11:35:17;;;;;;;7.30;3.63;;;;;;;;;;6240580;23;20416;-90
2022/07/30 11:38:03;;;;;;;8.50;2.85;;;;;;;;;;6241506;23;20004;-90
2022/07/30 11:40:34;;;;;;;8.35;3.00;;;;;;;;;;6238731;23;20035;-89
2022/07/30 11:43:15;;;;;;;5.05;2.45;;;;;;;;;;6214855;23;20082;-90
2022/07/30 11:45:41;;;;;;;3.20;1.90;;;;;;;;;;6213817;23;20008;-90
2022/07/30 11:48:12;;;;;;;9.02;3.17;;;;;;;;;;6214526;23;20440;-90
2022/07/30 11:50:38;;;;;;;7.32;2.85;;;;;;;;;;6213861;23;20512;-90
2022/07/30 11:53:05;;;;;;;3.75;2.55;;;;;;;;;;6214337;23;20047;-90
2022/07/30 11:55:41;;;;;;;9.27;2.92;;;;;;;;;;6213413;22;20091;-90
2022/07/30 11:58:08;;;;;;;6.65;2.50;;;;;;;;;;6215158;23;20012;-89
2022/07/30 12:00:36;;;;;;;8.80;2.78;;;;;;;;;;6214305;23;20209;-89
2022/07/30 12:03:12;;;;;;;4.88;2.40;;;;;;;;;;6213343;23;20472;-90
2022/07/30 12:05:38;;;;;;;8.43;2.65;;;;;;;;;;6213683;23;20440;-90
2022/07/30 12:08:04;;;;;;;2.83;1.92;;;;;;;;;;6241086;23;20484;-90
2022/07/30 12:10:30;;;;;;;10.75;2.40;;;;;;;;;;6212724;23;20347;-90
2022/07/30 12:13:07;;;;;;;4.47;2.60;;;;;;;;;;6241796;23;20035;-89
2022/07/30 12:15:34;;;;;;;3.85;3.03;;;;;;;;;;6213840;23;20384;-90
2022/07/30 12:18:00;;;;;;;5.25;2.25;;;;;;;;;;6213703;23;20004;-90
2022/07/30 12:20:26;;;;;;;4.70;2.30;;;;;;;;;;6241231;23;20456;-90
2022/07/30 12:22:53;;;;;;;5.07;2.17;;;;;;;;;;6213656;23;20428;-90
2022/07/30 12:25:19;;;;;;;5.15;2.33;;;;;;;;;;6212714;23;20012;-90
2022/07/30 12:27:46;;;;;;;8.38;2.28;;;;;;;;;;6240797;23;20054;-90
2022/07/30 12:30:12;;;;;;;6.82;2.03;;;;;;;;;;6214148;23;20032;-90
2022/07/30 12:32:39;;;;;;;13.45;2.80;;;;;;;;;;6213791;23;20101;-89
2022/07/30 12:35:05;;;;;;;6.07;2.10;;;;;;;;;;6214035;23;20476;-90
2022/07/30 12:37:31;;;;;;;9.13;2.30;;;;;;;;;;6213984;23;20011;-90
2022/07/30 12:40:11;;;;;;;4.55;1.73;;;;;;;;;;6212019;23;20070;-91
2022/07/30 12:42:48;;;;;;;7.63;2.15;;;;;;;;;;6214232;23;20498;-90
2022/07/30 12:45:31;;;;;;;7.07;2.05;;;;;;;;;;6213482;23;20011;-90
2022/07/30 12:47:58;;;;;;;7.13;2.20;;;;;;;;;;6214196;23;20452;-89
2022/07/30 12:50:24;;;;;;;5.00;2.38;;;;;;;;;;6214281;23;20428;-90
2022/07/30 12:52:51;;;;;;;6.85;2.13;;;;;;;;;;6213685;23;20008;-90
2022/07/30 12:55:18;;;;;;;6.38;2.05;;;;;;;;;;6212894;23;20495;-90
2022/07/30 12:58:00;;;;;;;10.50;3.03;;;;;;;;;;6186857;22;20365;-90
2022/07/30 13:00:31;;;;;;;4.13;2.30;;;;;;;;;;6187455;23;20429;-91
2022/07/30 13:02:58;;;;;;;5.60;2.03;;;;;;;;;;6187088;23;20051;-89
2022/07/30 13:05:46;;;;;;;4.88;2.10;;;;;;;;;;6188914;23;20352;-89
2022/07/30 13:08:12;;;;;;;3.63;2.17;;;;;;;;;;6188939;23;20019;-88
2022/07/30 13:10:38;;;;;;;11.07;2.40;;;;;;;;;;6188263;23;20008;-90
2022/07/30 13:13:04;;;;;;;7.65;2.88;;;;;;;;;;6189933;23;20344;-90
2022/07/30 13:15:30;;;;;;;8.00;2.47;;;;;;;;;;6191487;23;20032;-88
2022/07/30 13:17:56;;;;;;;7.90;2.45;;;;;;;;;;6193280;23;20083;-91
2022/07/30 13:20:23;;;;;;;7.47;2.45;;;;;;;;;;6196689;23;20012;-88
2022/07/30 13:22:49;;;;;;;5.20;2.38;;;;;;;;;;6192293;23;20445;-89
2022/07/30 13:25:15;;;;;;;6.85;2.00;;;;;;;;;;6190119;23;20007;-91
2022/07/30 13:27:41;;;;;;;5.55;2.70;;;;;;;;;;6188892;23;20078;-89
2022/07/30 13:30:07;;;;;;;5.45;1.98;;;;;;;;;;6212900;23;20063;-89
2022/07/30 13:32:33;;;;;;;9.13;2.25;;;;;;;;;;6185166;23;20058;-90
2022/07/30 13:34:59;;;;;;;7.35;2.08;;;;;;;;;;6183428;23;20004;-90
2022/07/30 13:37:25;;;;;;;4.05;2.13;;;;;;;;;;6184029;23;20011;-91
2022/07/30 13:39:51;;;;;;;4.75;1.80;;;;;;;;;;6181546;23;20000;-90
2022/07/30 13:42:17;;;;;;;6.72;2.45;;;;;;;;;;6182968;23;20007;-90
2022/07/30 13:44:43;;;;;;;4.35;2.10;;;;;;;;;;6183343;23;20035;-92
2022/07/30 13:47:09;;;;;;;7.28;2.33;;;;;;;;;;6183323;23;20012;-90
2022/07/30 13:49:37;;;;;;;3.22;1.92;;;;;;;;;;6183140;23;20009;-90
2022/07/30 13:52:03;;;;;;;4.93;2.20;;;;;;;;;;6183279;23;20555;-91
2022/07/30 13:54:30;;;;;;;6.68;1.88;;;;;;;;;;6182155;23;20012;-90
2022/07/30 13:56:56;;;;;;;5.20;2.10;;;;;;;;;;6185383;22;20024;-90
2022/07/30 13:59:22;;;;;;;5.28;1.70;;;;;;;;;;6183257;23;20015;-90
2022/07/30 14:01:48;;;;;;;8.82;1.80;;;;;;;;;;6182885;23;20004;-90
2022/07/30 14:04:14;;;;;;;3.60;1.90;;;;;;;;;;6182717;23;20462;-91
2022/07/30 14:06:40;;;;;;;5.22;1.85;;;;;;;;;;6182618;23;20044;-90
2022/07/30 14:09:06;;;;;;;2.42;1.63;;;;;;;;;;6183062;23;20302;-90
2022/07/30 14:11:32;;;;;;;4.13;1.73;;;;;;;;;;6182635;23;20147;-90
2022/07/30 14:13:58;;;;;;;3.90;1.50;;;;;;;;;;6209940;23;20024;-91
2022/07/30 14:16:24;;;;;;;2.03;1.42;;;;;;;;;;6182504;23;20433;-90
2022/07/30 14:18:50;;;;;;;5.65;1.38;;;;;;;;;;6183337;23;20000;-90
2022/07/30 14:21:16;;;;;;;3.42;1.65;;;;;;;;;;6183154;23;20004;-91
2022/07/30 14:23:42;;;;;;;2.95;1.55;;;;;;;;;;6182765;23;20039;-89
2022/07/30 14:26:08;;;;;;;5.35;1.77;;;;;;;;;;6182532;23;20012;-90
2022/07/30 14:28:34;;;;;;;4.28;1.92;;;;;;;;;;6182681;23;20028;-91
2022/07/30 14:31:00;;;;;;;7.63;2.42;;;;;;;;;;6182882;23;20012;-90
2022/07/30 14:33:26;;;;;;;8.70;2.10;;;;;;;;;;6182493;23;20448;-90
2022/07/30 14:35:52;;;;;;;6.93;1.80;;;;;;;;;;6182986;23;20448;-90